Portada
METAR-TAF:

METAR-TAF

Aeroports :

Aeroport Internacional de Mitiga

Trípoli, Líbia

latitud: 32-54N, longitud: 13-17E, altitud: 11 m

Observació

L'informe es va fer fa 1 hora i 58 minuts, a les 17:50 UTC
Vent 10 kt del Nord/Nord-Oest
Temperatura 21°C
Humitat 83%
Pressió 1014 hPa
Visibilitat: 5000 m
Escasses núvols a una alçada de 2500 ft
Cel ennuvolat a una alçada de 8000 ft
boirina

METAR: HLLM 221750Z 33010KT 5000 BR FEW025 BKN080 21/18 Q1014

Hora: 21:48 (19:48 UTC)

Pronòstic

L'informe es va fer fa 2 hores i 48 minuts, a les 17:00 UTC
Pronòstic vàlid del 22 a les 18 UTC al 23 a les 18 UTC
Vent 10 kt del Nord/Nord-Oest
Visibilitat: 8000 m
Núvols disperses a una alçada de 2500 ft
Probabilitat 40%
l' 22 a les 20 UTC al 23 a les 06 UTC
Visibilitat: 5000 m
Cel ennuvolat a una alçada de 1000 ft
boirina

TAF: HLLM 221700Z 2218/2318 33010KT 8000 SCT025 PROB40 2220/2306 5000 BR BKN010

Observacions i pronòstics meteorològics de més de 4000 aeroports (METAR i TAF).

Les estacions disponibles són els punts grocs i vermells al mapa.

Posi el ratolí al punt desitjat per veure el nom de l'estació.

Feu clic per veure les observacions i els pronòstics meteorològics.

Per canviar el mapa: feu clic els botons verds amb una creu de color negre per apropar; al botó verd amb un guió per allunyar la imatge; o en les fletxes verdes per a mapes adjacents.


METAR-TAF: